Terminal Aerodrome Forecast
Issued by NWS

Home | Current Version | Previous Version | Text Only | Print | Product List | Glossary On
Versions: 1 2 3 4 5 6 7 8 9 10 11 12 13 14 15
081
FTUS45 KABQ 250641 AAA
TAFGUP
TAF AMD
KGUP 250641Z 2507/2606 VRB03KT P6SM VCSH BKN090
      TEMPO 2507/2511 BKN011
     FM251400 23009KT P6SM BKN060
     FM252100 24009KT P6SM VCTS BKN070CB
     FM260000 24010KT P6SM VCSH BKN060=

USA.gov is the U.S. government's official web portal to all federal, state and local government web resources and services.